sensor_id;sensor_type;location;lat;lon;timestamp;P1;durP1;ratioP1;P2;durP2;ratioP2
14118;SDS011;7138;49.246;9.100;2023-02-18T00:00:39;4.85;;;2.70;;
14118;SDS011;7138;49.246;9.100;2023-02-18T00:03:05;3.80;;;2.30;;
14118;SDS011;7138;49.246;9.100;2023-02-18T00:05:30;3.60;;;2.25;;
14118;SDS011;7138;49.246;9.100;2023-02-18T00:07:56;4.32;;;2.20;;
14118;SDS011;7138;49.246;9.100;2023-02-18T00:10:23;4.20;;;2.47;;
14118;SDS011;7138;49.246;9.100;2023-02-18T00:12:49;4.53;;;2.60;;
14118;SDS011;7138;49.246;9.100;2023-02-18T00:15:15;4.57;;;2.63;;
14118;SDS011;7138;49.246;9.100;2023-02-18T00:17:41;4.07;;;2.65;;
14118;SDS011;7138;49.246;9.100;2023-02-18T00:20:07;4.60;;;2.85;;
14118;SDS011;7138;49.246;9.100;2023-02-18T00:22:33;5.47;;;2.70;;
14118;SDS011;7138;49.246;9.100;2023-02-18T00:24:59;4.63;;;2.85;;
14118;SDS011;7138;49.246;9.100;2023-02-18T00:27:26;4.50;;;2.90;;
14118;SDS011;7138;49.246;9.100;2023-02-18T00:29:52;4.80;;;2.53;;
14118;SDS011;7138;49.246;9.100;2023-02-18T00:32:18;5.20;;;3.15;;
14118;SDS011;7138;49.246;9.100;2023-02-18T00:34:44;7.45;;;3.03;;
14118;SDS011;7138;49.246;9.100;2023-02-18T00:37:10;4.53;;;2.90;;
14118;SDS011;7138;49.246;9.100;2023-02-18T00:39:35;4.60;;;3.10;;
14118;SDS011;7138;49.246;9.100;2023-02-18T00:42:01;6.97;;;3.28;;
14118;SDS011;7138;49.246;9.100;2023-02-18T00:44:29;5.60;;;3.58;;
14118;SDS011;7138;49.246;9.100;2023-02-18T00:46:54;4.20;;;2.80;;
14118;SDS011;7138;49.246;9.100;2023-02-18T00:49:20;4.82;;;3.13;;
14118;SDS011;7138;49.246;9.100;2023-02-18T00:51:46;4.78;;;3.28;;
14118;SDS011;7138;49.246;9.100;2023-02-18T00:54:12;4.80;;;3.20;;
14118;SDS011;7138;49.246;9.100;2023-02-18T00:56:38;5.25;;;3.17;;
14118;SDS011;7138;49.246;9.100;2023-02-18T00:59:04;5.25;;;3.20;;
14118;SDS011;7138;49.246;9.100;2023-02-18T01:01:31;5.68;;;3.45;;
14118;SDS011;7138;49.246;9.100;2023-02-18T01:03:57;4.35;;;2.63;;
14118;SDS011;7138;49.246;9.100;2023-02-18T01:06:23;6.50;;;3.08;;
14118;SDS011;7138;49.246;9.100;2023-02-18T01:08:48;3.95;;;2.58;;
14118;SDS011;7138;49.246;9.100;2023-02-18T01:11:14;6.35;;;2.90;;
14118;SDS011;7138;49.246;9.100;2023-02-18T01:13:40;5.57;;;2.40;;
14118;SDS011;7138;49.246;9.100;2023-02-18T01:16:07;4.50;;;2.75;;
14118;SDS011;7138;49.246;9.100;2023-02-18T01:18:37;4.07;;;2.70;;
14118;SDS011;7138;49.246;9.100;2023-02-18T01:21:04;5.85;;;3.20;;
14118;SDS011;7138;49.246;9.100;2023-02-18T01:23:32;6.55;;;3.00;;
14118;SDS011;7138;49.246;9.100;2023-02-18T01:25:58;5.47;;;3.08;;
14118;SDS011;7138;49.246;9.100;2023-02-18T01:28:24;5.15;;;2.97;;
14118;SDS011;7138;49.246;9.100;2023-02-18T01:30:50;4.07;;;2.60;;
14118;SDS011;7138;49.246;9.100;2023-02-18T01:33:19;8.75;;;3.47;;
14118;SDS011;7138;49.246;9.100;2023-02-18T01:35:46;5.47;;;3.40;;
14118;SDS011;7138;49.246;9.100;2023-02-18T01:38:13;5.30;;;3.13;;
14118;SDS011;7138;49.246;9.100;2023-02-18T01:40:43;5.63;;;3.50;;
14118;SDS011;7138;49.246;9.100;2023-02-18T01:43:12;4.75;;;3.10;;
14118;SDS011;7138;49.246;9.100;2023-02-18T01:45:44;5.20;;;2.90;;
14118;SDS011;7138;49.246;9.100;2023-02-18T01:48:38;5.00;;;3.45;;
14118;SDS011;7138;49.246;9.100;2023-02-18T01:51:10;5.22;;;3.55;;
14118;SDS011;7138;49.246;9.100;2023-02-18T01:53:43;5.05;;;3.10;;
14118;SDS011;7138;49.246;9.100;2023-02-18T01:56:18;4.72;;;3.67;;
14118;SDS011;7138;49.246;9.100;2023-02-18T01:58:52;5.90;;;3.60;;
14118;SDS011;7138;49.246;9.100;2023-02-18T02:01:23;6.15;;;3.67;;
14118;SDS011;7138;49.246;9.100;2023-02-18T02:03:51;5.55;;;3.70;;
14118;SDS011;7138;49.246;9.100;2023-02-18T02:06:18;5.45;;;3.67;;
14118;SDS011;7138;49.246;9.100;2023-02-18T02:08:48;5.85;;;3.22;;
14118;SDS011;7138;49.246;9.100;2023-02-18T02:11:29;6.22;;;3.08;;
14118;SDS011;7138;49.246;9.100;2023-02-18T02:14:30;4.30;;;3.05;;
14118;SDS011;7138;49.246;9.100;2023-02-18T02:17:17;4.93;;;3.35;;
14118;SDS011;7138;49.246;9.100;2023-02-18T02:20:16;4.35;;;2.90;;
14118;SDS011;7138;49.246;9.100;2023-02-18T02:27:02;5.05;;;2.88;;
14118;SDS011;7138;49.246;9.100;2023-02-18T02:33:00;4.68;;;3.05;;
14118;SDS011;7138;49.246;9.100;2023-02-18T02:36:09;4.28;;;2.40;;
14118;SDS011;7138;49.246;9.100;2023-02-18T02:38:43;4.72;;;2.63;;
14118;SDS011;7138;49.246;9.100;2023-02-18T02:41:22;3.97;;;2.70;;
14118;SDS011;7138;49.246;9.100;2023-02-18T02:44:11;5.38;;;3.35;;
14118;SDS011;7138;49.246;9.100;2023-02-18T02:46:46;5.38;;;3.40;;
14118;SDS011;7138;49.246;9.100;2023-02-18T02:49:19;4.68;;;3.40;;
14118;SDS011;7138;49.246;9.100;2023-02-18T02:52:04;5.45;;;3.80;;
14118;SDS011;7138;49.246;9.100;2023-02-18T02:54:36;6.47;;;3.85;;
14118;SDS011;7138;49.246;9.100;2023-02-18T02:57:06;6.28;;;4.60;;
14118;SDS011;7138;49.246;9.100;2023-02-18T03:00:07;6.85;;;4.30;;
14118;SDS011;7138;49.246;9.100;2023-02-18T03:02:40;5.93;;;4.28;;
14118;SDS011;7138;49.246;9.100;2023-02-18T03:05:36;5.90;;;3.90;;
14118;SDS011;7138;49.246;9.100;2023-02-18T03:08:28;6.82;;;4.05;;
14118;SDS011;7138;49.246;9.100;2023-02-18T03:11:06;6.63;;;4.03;;
14118;SDS011;7138;49.246;9.100;2023-02-18T03:16:21;6.07;;;4.05;;
14118;SDS011;7138;49.246;9.100;2023-02-18T03:19:01;7.35;;;4.30;;
14118;SDS011;7138;49.246;9.100;2023-02-18T03:21:34;6.43;;;4.57;;
14118;SDS011;7138;49.246;9.100;2023-02-18T03:24:07;8.02;;;4.80;;
14118;SDS011;7138;49.246;9.100;2023-02-18T03:26:41;6.60;;;4.90;;
14118;SDS011;7138;49.246;9.100;2023-02-18T03:29:12;6.50;;;5.00;;
14118;SDS011;7138;49.246;9.100;2023-02-18T03:31:42;10.10;;;5.97;;
14118;SDS011;7138;49.246;9.100;2023-02-18T03:34:14;7.90;;;5.03;;
14118;SDS011;7138;49.246;9.100;2023-02-18T03:36:48;7.50;;;5.45;;
14118;SDS011;7138;49.246;9.100;2023-02-18T03:39:17;7.72;;;5.65;;
14118;SDS011;7138;49.246;9.100;2023-02-18T03:41:45;7.68;;;5.50;;
14118;SDS011;7138;49.246;9.100;2023-02-18T03:44:11;7.45;;;5.60;;
14118;SDS011;7138;49.246;9.100;2023-02-18T03:46:38;8.30;;;5.70;;
14118;SDS011;7138;49.246;9.100;2023-02-18T03:49:07;8.55;;;5.35;;
14118;SDS011;7138;49.246;9.100;2023-02-18T03:51:34;8.18;;;4.68;;
14118;SDS011;7138;49.246;9.100;2023-02-18T03:54:00;7.10;;;4.97;;
14118;SDS011;7138;49.246;9.100;2023-02-18T03:56:27;8.52;;;5.10;;
14118;SDS011;7138;49.246;9.100;2023-02-18T03:58:53;6.75;;;5.05;;
14118;SDS011;7138;49.246;9.100;2023-02-18T04:01:19;7.75;;;5.07;;
14118;SDS011;7138;49.246;9.100;2023-02-18T04:03:45;7.20;;;4.78;;
14118;SDS011;7138;49.246;9.100;2023-02-18T04:06:10;6.68;;;4.88;;
14118;SDS011;7138;49.246;9.100;2023-02-18T04:08:36;7.53;;;5.65;;
14118;SDS011;7138;49.246;9.100;2023-02-18T04:11:02;6.63;;;4.90;;
14118;SDS011;7138;49.246;9.100;2023-02-18T04:13:30;7.65;;;4.60;;
14118;SDS011;7138;49.246;9.100;2023-02-18T04:15:56;7.53;;;5.55;;
14118;SDS011;7138;49.246;9.100;2023-02-18T04:18:22;6.65;;;5.00;;
14118;SDS011;7138;49.246;9.100;2023-02-18T04:20:48;6.35;;;5.30;;
14118;SDS011;7138;49.246;9.100;2023-02-18T04:23:14;8.45;;;5.78;;
14118;SDS011;7138;49.246;9.100;2023-02-18T04:25:40;7.72;;;5.10;;
14118;SDS011;7138;49.246;9.100;2023-02-18T04:28:06;6.90;;;5.50;;
14118;SDS011;7138;49.246;9.100;2023-02-18T04:30:33;7.40;;;5.35;;
14118;SDS011;7138;49.246;9.100;2023-02-18T04:32:59;7.18;;;5.25;;
14118;SDS011;7138;49.246;9.100;2023-02-18T04:35:24;7.30;;;5.47;;
14118;SDS011;7138;49.246;9.100;2023-02-18T04:37:50;8.00;;;5.78;;
14118;SDS011;7138;49.246;9.100;2023-02-18T04:40:16;8.85;;;5.57;;
14118;SDS011;7138;49.246;9.100;2023-02-18T04:42:42;8.90;;;5.95;;
14118;SDS011;7138;49.246;9.100;2023-02-18T04:45:08;8.43;;;6.05;;
14118;SDS011;7138;49.246;9.100;2023-02-18T04:47:35;8.23;;;6.10;;
14118;SDS011;7138;49.246;9.100;2023-02-18T04:50:01;9.02;;;6.78;;
14118;SDS011;7138;49.246;9.100;2023-02-18T04:52:28;8.68;;;6.13;;
14118;SDS011;7138;49.246;9.100;2023-02-18T04:54:53;9.18;;;6.45;;
14118;SDS011;7138;49.246;9.100;2023-02-18T04:57:19;8.48;;;6.32;;
14118;SDS011;7138;49.246;9.100;2023-02-18T04:59:45;9.32;;;6.63;;
14118;SDS011;7138;49.246;9.100;2023-02-18T05:02:11;9.18;;;6.90;;
14118;SDS011;7138;49.246;9.100;2023-02-18T05:04:38;9.38;;;7.15;;
14118;SDS011;7138;49.246;9.100;2023-02-18T05:07:04;9.55;;;6.95;;
14118;SDS011;7138;49.246;9.100;2023-02-18T05:09:29;12.48;;;7.47;;
14118;SDS011;7138;49.246;9.100;2023-02-18T05:11:55;8.88;;;6.78;;
14118;SDS011;7138;49.246;9.100;2023-02-18T05:14:21;9.70;;;6.70;;
14118;SDS011;7138;49.246;9.100;2023-02-18T05:16:47;8.32;;;6.50;;
14118;SDS011;7138;49.246;9.100;2023-02-18T05:19:13;8.60;;;6.30;;
14118;SDS011;7138;49.246;9.100;2023-02-18T05:21:41;11.23;;;6.47;;
14118;SDS011;7138;49.246;9.100;2023-02-18T05:24:07;9.70;;;6.22;;
14118;SDS011;7138;49.246;9.100;2023-02-18T05:26:34;8.52;;;5.93;;
14118;SDS011;7138;49.246;9.100;2023-02-18T05:29:00;7.53;;;5.63;;
14118;SDS011;7138;49.246;9.100;2023-02-18T05:31:26;7.13;;;4.88;;
14118;SDS011;7138;49.246;9.100;2023-02-18T05:33:52;7.22;;;5.50;;
14118;SDS011;7138;49.246;9.100;2023-02-18T05:36:17;8.18;;;5.15;;
14118;SDS011;7138;49.246;9.100;2023-02-18T05:38:45;7.72;;;5.38;;
14118;SDS011;7138;49.246;9.100;2023-02-18T05:41:10;7.38;;;4.88;;
14118;SDS011;7138;49.246;9.100;2023-02-18T05:43:36;8.82;;;5.53;;
14118;SDS011;7138;49.246;9.100;2023-02-18T05:46:21;8.13;;;4.97;;
14118;SDS011;7138;49.246;9.100;2023-02-18T05:48:47;9.07;;;5.57;;
14118;SDS011;7138;49.246;9.100;2023-02-18T05:51:13;8.05;;;5.00;;
14118;SDS011;7138;49.246;9.100;2023-02-18T05:53:39;5.97;;;4.03;;
14118;SDS011;7138;49.246;9.100;2023-02-18T05:56:07;6.78;;;4.85;;
14118;SDS011;7138;49.246;9.100;2023-02-18T05:58:32;6.80;;;4.40;;
14118;SDS011;7138;49.246;9.100;2023-02-18T06:00:58;7.25;;;4.43;;
14118;SDS011;7138;49.246;9.100;2023-02-18T06:03:24;7.32;;;4.78;;
14118;SDS011;7138;49.246;9.100;2023-02-18T06:05:50;6.78;;;4.55;;
14118;SDS011;7138;49.246;9.100;2023-02-18T06:08:16;7.38;;;4.32;;
14118;SDS011;7138;49.246;9.100;2023-02-18T06:10:44;6.93;;;4.78;;
14118;SDS011;7138;49.246;9.100;2023-02-18T06:13:12;7.75;;;5.03;;
14118;SDS011;7138;49.246;9.100;2023-02-18T06:15:38;7.18;;;4.57;;
14118;SDS011;7138;49.246;9.100;2023-02-18T06:18:04;7.07;;;4.65;;
14118;SDS011;7138;49.246;9.100;2023-02-18T06:20:30;6.80;;;4.57;;
14118;SDS011;7138;49.246;9.100;2023-02-18T06:22:56;9.60;;;4.47;;
14118;SDS011;7138;49.246;9.100;2023-02-18T06:25:22;8.27;;;4.35;;
14118;SDS011;7138;49.246;9.100;2023-02-18T06:27:48;7.07;;;4.22;;
14118;SDS011;7138;49.246;9.100;2023-02-18T06:30:15;6.00;;;3.65;;
14118;SDS011;7138;49.246;9.100;2023-02-18T06:32:41;6.35;;;4.22;;
14118;SDS011;7138;49.246;9.100;2023-02-18T06:35:07;7.20;;;3.80;;
14118;SDS011;7138;49.246;9.100;2023-02-18T06:37:34;6.40;;;3.78;;
14118;SDS011;7138;49.246;9.100;2023-02-18T06:39:59;5.47;;;3.67;;
14118;SDS011;7138;49.246;9.100;2023-02-18T06:42:25;6.10;;;4.20;;
14118;SDS011;7138;49.246;9.100;2023-02-18T06:44:51;7.22;;;4.00;;
14118;SDS011;7138;49.246;9.100;2023-02-18T06:47:18;5.57;;;3.80;;
14118;SDS011;7138;49.246;9.100;2023-02-18T06:49:44;6.00;;;3.58;;
14118;SDS011;7138;49.246;9.100;2023-02-18T06:52:10;6.47;;;4.10;;
14118;SDS011;7138;49.246;9.100;2023-02-18T06:54:36;5.65;;;4.05;;
14118;SDS011;7138;49.246;9.100;2023-02-18T06:57:01;6.68;;;4.20;;
14118;SDS011;7138;49.246;9.100;2023-02-18T06:59:27;6.72;;;4.80;;
14118;SDS011;7138;49.246;9.100;2023-02-18T07:01:53;7.13;;;4.28;;
14118;SDS011;7138;49.246;9.100;2023-02-18T07:04:20;6.07;;;4.00;;
14118;SDS011;7138;49.246;9.100;2023-02-18T07:06:46;8.05;;;3.90;;
14118;SDS011;7138;49.246;9.100;2023-02-18T07:09:12;5.35;;;3.45;;
14118;SDS011;7138;49.246;9.100;2023-02-18T07:11:38;5.78;;;3.65;;
14118;SDS011;7138;49.246;9.100;2023-02-18T07:14:04;6.25;;;3.53;;
14118;SDS011;7138;49.246;9.100;2023-02-18T07:16:30;6.80;;;4.10;;
14118;SDS011;7138;49.246;9.100;2023-02-18T07:18:55;6.60;;;3.50;;
14118;SDS011;7138;49.246;9.100;2023-02-18T07:21:23;7.63;;;4.00;;
14118;SDS011;7138;49.246;9.100;2023-02-18T07:23:49;6.25;;;3.85;;
14118;SDS011;7138;49.246;9.100;2023-02-18T07:26:14;6.07;;;3.40;;
14118;SDS011;7138;49.246;9.100;2023-02-18T07:28:40;6.00;;;3.70;;
14118;SDS011;7138;49.246;9.100;2023-02-18T07:31:06;6.93;;;3.22;;
14118;SDS011;7138;49.246;9.100;2023-02-18T07:33:33;6.00;;;3.60;;
14118;SDS011;7138;49.246;9.100;2023-02-18T07:35:59;5.60;;;3.40;;
14118;SDS011;7138;49.246;9.100;2023-02-18T07:38:28;5.97;;;3.10;;
14118;SDS011;7138;49.246;9.100;2023-02-18T07:40:55;5.85;;;3.30;;
14118;SDS011;7138;49.246;9.100;2023-02-18T07:43:21;4.22;;;2.65;;
14118;SDS011;7138;49.246;9.100;2023-02-18T07:45:48;4.57;;;2.97;;
14118;SDS011;7138;49.246;9.100;2023-02-18T07:48:14;5.22;;;3.20;;
14118;SDS011;7138;49.246;9.100;2023-02-18T07:50:42;4.43;;;2.72;;
14118;SDS011;7138;49.246;9.100;2023-02-18T07:53:10;4.43;;;2.80;;
14118;SDS011;7138;49.246;9.100;2023-02-18T07:55:38;4.28;;;2.50;;
14118;SDS011;7138;49.246;9.100;2023-02-18T07:58:13;4.55;;;2.63;;
14118;SDS011;7138;49.246;9.100;2023-02-18T08:00:39;5.85;;;3.03;;
14118;SDS011;7138;49.246;9.100;2023-02-18T08:03:05;4.82;;;2.70;;
14118;SDS011;7138;49.246;9.100;2023-02-18T08:05:31;4.57;;;2.67;;
14118;SDS011;7138;49.246;9.100;2023-02-18T08:07:57;5.38;;;2.95;;
14118;SDS011;7138;49.246;9.100;2023-02-18T08:10:22;4.40;;;2.50;;
14118;SDS011;7138;49.246;9.100;2023-02-18T08:12:50;4.70;;;2.53;;
14118;SDS011;7138;49.246;9.100;2023-02-18T08:15:15;4.45;;;2.60;;
14118;SDS011;7138;49.246;9.100;2023-02-18T08:17:41;4.65;;;2.42;;
14118;SDS011;7138;49.246;9.100;2023-02-18T08:20:08;4.50;;;2.53;;
14118;SDS011;7138;49.246;9.100;2023-02-18T08:22:34;5.30;;;2.70;;
14118;SDS011;7138;49.246;9.100;2023-02-18T08:25:00;4.28;;;2.50;;
14118;SDS011;7138;49.246;9.100;2023-02-18T08:27:26;5.10;;;2.60;;
14118;SDS011;7138;49.246;9.100;2023-02-18T08:29:53;4.55;;;2.60;;
14118;SDS011;7138;49.246;9.100;2023-02-18T08:32:20;4.15;;;2.50;;
14118;SDS011;7138;49.246;9.100;2023-02-18T08:34:46;4.50;;;2.60;;
14118;SDS011;7138;49.246;9.100;2023-02-18T08:37:12;4.40;;;2.50;;
14118;SDS011;7138;49.246;9.100;2023-02-18T08:39:38;4.40;;;2.38;;
14118;SDS011;7138;49.246;9.100;2023-02-18T08:42:04;4.72;;;2.60;;
14118;SDS011;7138;49.246;9.100;2023-02-18T08:44:30;4.70;;;2.97;;
14118;SDS011;7138;49.246;9.100;2023-02-18T08:46:57;4.82;;;2.40;;
14118;SDS011;7138;49.246;9.100;2023-02-18T08:49:23;5.63;;;3.00;;
14118;SDS011;7138;49.246;9.100;2023-02-18T08:51:48;4.07;;;2.47;;
14118;SDS011;7138;49.246;9.100;2023-02-18T08:54:14;4.80;;;2.65;;
14118;SDS011;7138;49.246;9.100;2023-02-18T08:56:40;6.22;;;3.00;;
14118;SDS011;7138;49.246;9.100;2023-02-18T08:59:06;4.50;;;2.63;;
14118;SDS011;7138;49.246;9.100;2023-02-18T09:01:32;5.32;;;2.70;;
14118;SDS011;7138;49.246;9.100;2023-02-18T09:03:59;6.70;;;2.55;;
14118;SDS011;7138;49.246;9.100;2023-02-18T09:06:25;4.47;;;2.35;;
14118;SDS011;7138;49.246;9.100;2023-02-18T09:08:51;5.88;;;2.60;;
14118;SDS011;7138;49.246;9.100;2023-02-18T09:11:18;6.00;;;2.72;;
14118;SDS011;7138;49.246;9.100;2023-02-18T09:13:44;4.60;;;2.60;;
14118;SDS011;7138;49.246;9.100;2023-02-18T09:16:11;3.60;;;2.10;;
14118;SDS011;7138;49.246;9.100;2023-02-18T09:18:38;4.88;;;2.80;;
14118;SDS011;7138;49.246;9.100;2023-02-18T09:21:07;4.97;;;2.78;;
14118;SDS011;7138;49.246;9.100;2023-02-18T09:23:34;4.90;;;2.45;;
14118;SDS011;7138;49.246;9.100;2023-02-18T09:26:02;4.07;;;2.50;;
14118;SDS011;7138;49.246;9.100;2023-02-18T09:28:29;4.65;;;2.40;;
14118;SDS011;7138;49.246;9.100;2023-02-18T09:30:55;4.70;;;2.90;;
14118;SDS011;7138;49.246;9.100;2023-02-18T09:33:21;5.07;;;2.50;;
14118;SDS011;7138;49.246;9.100;2023-02-18T09:35:47;4.35;;;2.50;;
14118;SDS011;7138;49.246;9.100;2023-02-18T09:38:15;5.07;;;2.90;;
14118;SDS011;7138;49.246;9.100;2023-02-18T09:40:43;5.20;;;2.60;;
14118;SDS011;7138;49.246;9.100;2023-02-18T09:45:48;4.68;;;2.38;;
14118;SDS011;7138;49.246;9.100;2023-02-18T09:48:17;4.05;;;2.40;;
14118;SDS011;7138;49.246;9.100;2023-02-18T09:50:44;4.38;;;2.33;;
14118;SDS011;7138;49.246;9.100;2023-02-18T09:53:17;4.25;;;2.53;;
14118;SDS011;7138;49.246;9.100;2023-02-18T09:55:50;3.90;;;2.15;;
14118;SDS011;7138;49.246;9.100;2023-02-18T09:58:18;3.90;;;2.20;;
14118;SDS011;7138;49.246;9.100;2023-02-18T10:00:51;4.22;;;2.00;;
14118;SDS011;7138;49.246;9.100;2023-02-18T10:03:25;3.70;;;2.08;;
14118;SDS011;7138;49.246;9.100;2023-02-18T10:05:55;4.15;;;2.15;;
14118;SDS011;7138;49.246;9.100;2023-02-18T10:08:26;3.15;;;1.80;;
14118;SDS011;7138;49.246;9.100;2023-02-18T10:10:56;4.95;;;2.22;;
14118;SDS011;7138;49.246;9.100;2023-02-18T10:13:22;6.40;;;3.15;;
14118;SDS011;7138;49.246;9.100;2023-02-18T10:15:52;4.35;;;1.92;;
14118;SDS011;7138;49.246;9.100;2023-02-18T10:18:21;4.03;;;1.92;;
14118;SDS011;7138;49.246;9.100;2023-02-18T10:20:54;5.53;;;2.05;;
14118;SDS011;7138;49.246;9.100;2023-02-18T10:23:30;3.65;;;2.00;;
14118;SDS011;7138;49.246;9.100;2023-02-18T10:26:00;4.30;;;2.00;;
14118;SDS011;7138;49.246;9.100;2023-02-18T10:28:31;4.47;;;1.95;;
14118;SDS011;7138;49.246;9.100;2023-02-18T10:31:01;4.30;;;2.00;;
14118;SDS011;7138;49.246;9.100;2023-02-18T10:33:35;4.70;;;2.35;;
14118;SDS011;7138;49.246;9.100;2023-02-18T10:36:17;4.13;;;2.13;;
14118;SDS011;7138;49.246;9.100;2023-02-18T10:39:02;3.80;;;2.10;;
14118;SDS011;7138;49.246;9.100;2023-02-18T10:41:46;4.15;;;2.20;;
14118;SDS011;7138;49.246;9.100;2023-02-18T10:44:27;6.72;;;2.20;;
14118;SDS011;7138;49.246;9.100;2023-02-18T10:47:10;3.88;;;2.33;;
14118;SDS011;7138;49.246;9.100;2023-02-18T10:49:55;5.65;;;2.40;;
14118;SDS011;7138;49.246;9.100;2023-02-18T10:52:26;5.57;;;2.08;;
14118;SDS011;7138;49.246;9.100;2023-02-18T10:54:59;3.50;;;2.00;;
14118;SDS011;7138;49.246;9.100;2023-02-18T10:57:29;4.40;;;1.60;;
14118;SDS011;7138;49.246;9.100;2023-02-18T10:59:58;4.25;;;2.00;;
14118;SDS011;7138;49.246;9.100;2023-02-18T11:02:35;3.80;;;1.80;;
14118;SDS011;7138;49.246;9.100;2023-02-18T11:05:05;4.43;;;2.20;;
14118;SDS011;7138;49.246;9.100;2023-02-18T11:07:44;2.90;;;1.63;;
14118;SDS011;7138;49.246;9.100;2023-02-18T11:10:18;3.60;;;1.80;;
14118;SDS011;7138;49.246;9.100;2023-02-18T11:12:50;3.35;;;1.75;;
14118;SDS011;7138;49.246;9.100;2023-02-18T11:15:22;5.90;;;1.92;;
14118;SDS011;7138;49.246;9.100;2023-02-18T11:17:51;6.13;;;1.95;;
14118;SDS011;7138;49.246;9.100;2023-02-18T11:20:22;3.20;;;1.60;;
14118;SDS011;7138;49.246;9.100;2023-02-18T11:22:56;3.90;;;1.50;;
14118;SDS011;7138;49.246;9.100;2023-02-18T11:25:39;2.83;;;1.45;;
14118;SDS011;7138;49.246;9.100;2023-02-18T11:28:24;3.53;;;1.65;;
14118;SDS011;7138;49.246;9.100;2023-02-18T11:30:58;5.05;;;2.72;;
14118;SDS011;7138;49.246;9.100;2023-02-18T11:33:30;3.53;;;1.77;;
14118;SDS011;7138;49.246;9.100;2023-02-18T11:36:03;4.50;;;1.90;;
14118;SDS011;7138;49.246;9.100;2023-02-18T11:38:42;4.45;;;1.90;;
14118;SDS011;7138;49.246;9.100;2023-02-18T11:41:15;5.28;;;1.80;;
14118;SDS011;7138;49.246;9.100;2023-02-18T11:43:46;3.10;;;1.63;;
14118;SDS011;7138;49.246;9.100;2023-02-18T11:48:43;4.53;;;2.00;;
14118;SDS011;7138;49.246;9.100;2023-02-18T11:51:13;4.88;;;2.05;;
14118;SDS011;7138;49.246;9.100;2023-02-18T11:53:52;3.80;;;1.85;;
14118;SDS011;7138;49.246;9.100;2023-02-18T11:56:27;4.32;;;1.65;;
14118;SDS011;7138;49.246;9.100;2023-02-18T11:58:56;4.22;;;1.67;;
14118;SDS011;7138;49.246;9.100;2023-02-18T12:01:27;3.75;;;2.00;;
14118;SDS011;7138;49.246;9.100;2023-02-18T12:04:07;4.93;;;1.92;;
14118;SDS011;7138;49.246;9.100;2023-02-18T12:06:37;3.20;;;1.63;;
14118;SDS011;7138;49.246;9.100;2023-02-18T12:09:17;3.10;;;1.45;;
14118;SDS011;7138;49.246;9.100;2023-02-18T12:11:55;3.28;;;1.70;;
14118;SDS011;7138;49.246;9.100;2023-02-18T12:14:25;4.15;;;1.88;;
14118;SDS011;7138;49.246;9.100;2023-02-18T12:17:11;3.53;;;1.50;;
14118;SDS011;7138;49.246;9.100;2023-02-18T12:20:18;4.47;;;1.50;;
14118;SDS011;7138;49.246;9.100;2023-02-18T12:23:11;4.60;;;1.42;;
14118;SDS011;7138;49.246;9.100;2023-02-18T12:25:51;4.93;;;1.35;;
14118;SDS011;7138;49.246;9.100;2023-02-18T12:28:38;2.80;;;1.30;;
14118;SDS011;7138;49.246;9.100;2023-02-18T12:31:25;3.78;;;1.70;;
14118;SDS011;7138;49.246;9.100;2023-02-18T12:34:25;3.30;;;1.55;;
14118;SDS011;7138;49.246;9.100;2023-02-18T12:37:10;3.47;;;1.35;;
14118;SDS011;7138;49.246;9.100;2023-02-18T12:40:02;3.90;;;1.50;;
14118;SDS011;7138;49.246;9.100;2023-02-18T12:42:53;3.85;;;1.60;;
14118;SDS011;7138;49.246;9.100;2023-02-18T12:45:40;4.15;;;1.55;;
14118;SDS011;7138;49.246;9.100;2023-02-18T12:48:31;3.47;;;1.60;;
14118;SDS011;7138;49.246;9.100;2023-02-18T12:51:25;3.92;;;1.45;;
14118;SDS011;7138;49.246;9.100;2023-02-18T12:57:19;3.85;;;1.38;;
14118;SDS011;7138;49.246;9.100;2023-02-18T13:03:38;3.53;;;1.42;;
14118;SDS011;7138;49.246;9.100;2023-02-18T13:06:49;3.38;;;1.50;;
14118;SDS011;7138;49.246;9.100;2023-02-18T13:10:11;3.17;;;1.40;;
14118;SDS011;7138;49.246;9.100;2023-02-18T13:13:07;3.78;;;1.50;;
14118;SDS011;7138;49.246;9.100;2023-02-18T13:15:39;3.33;;;1.20;;
14118;SDS011;7138;49.246;9.100;2023-02-18T13:18:14;3.60;;;1.70;;
14118;SDS011;7138;49.246;9.100;2023-02-18T13:20:47;4.50;;;1.55;;
14118;SDS011;7138;49.246;9.100;2023-02-18T13:23:18;3.17;;;1.42;;
14118;SDS011;7138;49.246;9.100;2023-02-18T13:25:54;3.03;;;1.70;;
14118;SDS011;7138;49.246;9.100;2023-02-18T13:28:25;3.13;;;1.48;;
14118;SDS011;7138;49.246;9.100;2023-02-18T13:31:02;5.90;;;1.77;;
14118;SDS011;7138;49.246;9.100;2023-02-18T13:33:49;4.32;;;1.73;;
14118;SDS011;7138;49.246;9.100;2023-02-18T13:36:29;2.90;;;1.50;;
14118;SDS011;7138;49.246;9.100;2023-02-18T13:39:11;3.40;;;1.58;;
14118;SDS011;7138;49.246;9.100;2023-02-18T13:41:44;3.67;;;1.90;;
14118;SDS011;7138;49.246;9.100;2023-02-18T13:47:47;3.10;;;1.75;;
14118;SDS011;7138;49.246;9.100;2023-02-18T13:50:21;3.40;;;1.50;;
14118;SDS011;7138;49.246;9.100;2023-02-18T13:53:13;5.40;;;1.38;;
14118;SDS011;7138;49.246;9.100;2023-02-18T13:55:49;3.55;;;1.40;;
14118;SDS011;7138;49.246;9.100;2023-02-18T13:58:20;2.97;;;1.40;;
14118;SDS011;7138;49.246;9.100;2023-02-18T14:00:54;5.38;;;1.50;;
14118;SDS011;7138;49.246;9.100;2023-02-18T14:03:31;2.75;;;1.23;;
14118;SDS011;7138;49.246;9.100;2023-02-18T14:06:15;3.17;;;1.40;;
14118;SDS011;7138;49.246;9.100;2023-02-18T14:08:45;4.13;;;1.50;;
14118;SDS011;7138;49.246;9.100;2023-02-18T14:17:23;2.72;;;1.10;;
14118;SDS011;7138;49.246;9.100;2023-02-18T14:23:42;2.63;;;1.10;;
14118;SDS011;7138;49.246;9.100;2023-02-18T14:26:29;2.10;;;1.00;;
14118;SDS011;7138;49.246;9.100;2023-02-18T14:29:00;2.50;;;1.13;;
14118;SDS011;7138;49.246;9.100;2023-02-18T14:31:34;4.40;;;1.42;;
14118;SDS011;7138;49.246;9.100;2023-02-18T14:34:27;2.80;;;1.25;;
14118;SDS011;7138;49.246;9.100;2023-02-18T14:37:28;2.72;;;1.50;;
14118;SDS011;7138;49.246;9.100;2023-02-18T14:40:42;3.53;;;1.40;;
14118;SDS011;7138;49.246;9.100;2023-02-18T14:44:15;4.25;;;2.00;;
14118;SDS011;7138;49.246;9.100;2023-02-18T14:47:10;5.22;;;2.25;;
14118;SDS011;7138;49.246;9.100;2023-02-18T14:49:52;4.05;;;2.33;;
14118;SDS011;7138;49.246;9.100;2023-02-18T14:52:26;3.88;;;2.10;;
14118;SDS011;7138;49.246;9.100;2023-02-18T14:54:57;4.38;;;2.13;;
14118;SDS011;7138;49.246;9.100;2023-02-18T14:57:30;4.63;;;2.55;;
14118;SDS011;7138;49.246;9.100;2023-02-18T15:00:03;4.97;;;2.80;;
14118;SDS011;7138;49.246;9.100;2023-02-18T15:02:34;4.38;;;2.50;;
14118;SDS011;7138;49.246;9.100;2023-02-18T15:05:14;5.18;;;2.50;;
14118;SDS011;7138;49.246;9.100;2023-02-18T15:07:53;4.75;;;2.45;;
14118;SDS011;7138;49.246;9.100;2023-02-18T15:10:20;6.63;;;3.13;;
14118;SDS011;7138;49.246;9.100;2023-02-18T15:12:55;4.07;;;2.30;;
14118;SDS011;7138;49.246;9.100;2023-02-18T15:15:20;5.47;;;2.60;;
14118;SDS011;7138;49.246;9.100;2023-02-18T15:17:47;5.55;;;3.15;;
14118;SDS011;7138;49.246;9.100;2023-02-18T15:20:13;4.18;;;2.40;;
14118;SDS011;7138;49.246;9.100;2023-02-18T15:22:40;7.57;;;2.65;;
14118;SDS011;7138;49.246;9.100;2023-02-18T15:25:08;4.70;;;2.55;;
14118;SDS011;7138;49.246;9.100;2023-02-18T15:30:15;5.70;;;2.40;;
14118;SDS011;7138;49.246;9.100;2023-02-18T15:35:17;5.68;;;2.95;;
14118;SDS011;7138;49.246;9.100;2023-02-18T15:37:50;7.47;;;2.80;;
14118;SDS011;7138;49.246;9.100;2023-02-18T15:40:19;4.85;;;2.80;;
14118;SDS011;7138;49.246;9.100;2023-02-18T15:42:47;4.90;;;2.67;;
14118;SDS011;7138;49.246;9.100;2023-02-18T15:45:18;4.68;;;2.60;;
14118;SDS011;7138;49.246;9.100;2023-02-18T15:47:48;4.82;;;3.00;;
14118;SDS011;7138;49.246;9.100;2023-02-18T15:50:17;7.40;;;3.30;;
14118;SDS011;7138;49.246;9.100;2023-02-18T15:52:47;5.22;;;2.88;;
14118;SDS011;7138;49.246;9.100;2023-02-18T15:55:18;5.20;;;2.90;;
14118;SDS011;7138;49.246;9.100;2023-02-18T15:57:51;5.47;;;3.40;;
14118;SDS011;7138;49.246;9.100;2023-02-18T16:00:20;6.50;;;3.35;;
14118;SDS011;7138;49.246;9.100;2023-02-18T16:02:53;6.65;;;3.60;;
14118;SDS011;7138;49.246;9.100;2023-02-18T16:05:26;5.68;;;3.00;;
14118;SDS011;7138;49.246;9.100;2023-02-18T16:07:56;5.38;;;3.05;;